Gamaliel, AR (72537)

6:42 PM CDT on August 29, 2016 (GMT -0500)
Baxter County Regional | | Change Station

Elev 925 ft 36.37 °N, 92.47 °W | Updated 42 minutes ago

Light Rain
Light Rain
78 °F
Feels Like 78 °F
N
4
Wind Variable Wind from SSE

Today
High -- | Low -- °F
--% Chance of Precip.
Yesterday
High -- | Low -- °F
Precip. -- in
Pressure 30.09 in
Visibility 10.0 miles
Clouds Few 4600 ft
Scattered Clouds 10000 ft
Mostly Cloudy 12000 ft
Dew Point 74 °F
Humidity 87%
Rainfall 0.05 in
Snow Depth Not available.
6:39 AM 7:41 PM
Waning Crescent, 6% visible
SPECI KBPK 292300Z AUTO 15003KT 10SM -RA FEW046 SCT100 BKN120 26/23 A3009 RMK AO2 LTG DSNT W AND NW P0000 T02560233
Pressure 30.09 in
Visibility 10.0 miles
Clouds Few 4600 ft
Scattered Clouds 10000 ft
Mostly Cloudy 12000 ft
Dew Point 74 °F
Humidity 87%
Rainfall 0.05 in
Snow Depth Not available.
6:39 AM 7:41 PM
Waning Crescent, 6% visible
SPECI KBPK 292300Z AUTO 15003KT 10SM -RA FEW046 SCT100 BKN120 26/23 A3009 RMK AO2 LTG DSNT W AND NW P0000 T02560233

10-Day Weather Forecast

Almanac

Astronomy

Aug. 29, 2016 Rise Set
Actual Time
Civil Twilight
Nautical Twilight
Astronomical Twilight
Moon
Length of Visible Light
Length of Day
Tomorrow will be .
, % of the Moon is Illuminated

Today's Extremes

State Highs State Lows

Community

WunderPhotos

Upload Photos

1,935,695 photos uploaded!

WunderBlog® & News

Nearby

Air Quality

  Air Quality AQ Index Pollutant
Not available.

Snow Depth

Station Depth Elevation

Earthquake Activity

City Distance Mag. Time & Date
Minimum magnitude displayed is 2.5.

Coastal Water Temperatures

Place Temperature

Stations

Nearby Weather Stations

Station Location Temp. Windchill Dew Point Humidity Wind Precip. Elev Updated Type
                   

Watches & Warnings

There are currently no watches in effect.